sensor_id;sensor_type;location;lat;lon;timestamp;temperature;humidity
66722;SHT31;53633;49.932;10.884;2023-06-26T00:00:57;18.14;80.09
66722;SHT31;53633;49.932;10.884;2023-06-26T00:03:23;18.13;80.16
66722;SHT31;53633;49.932;10.884;2023-06-26T00:05:50;18.12;80.40
66722;SHT31;53633;49.932;10.884;2023-06-26T00:08:17;18.12;80.40
66722;SHT31;53633;49.932;10.884;2023-06-26T00:10:45;18.06;80.45
66722;SHT31;53633;49.932;10.884;2023-06-26T00:13:12;18.05;80.67
66722;SHT31;53633;49.932;10.884;2023-06-26T00:15:38;17.98;80.75
66722;SHT31;53633;49.932;10.884;2023-06-26T00:18:05;17.99;80.69
66722;SHT31;53633;49.932;10.884;2023-06-26T00:20:32;17.93;80.56
66722;SHT31;53633;49.932;10.884;2023-06-26T00:22:58;17.89;80.55
66722;SHT31;53633;49.932;10.884;2023-06-26T00:25:25;17.82;80.84
66722;SHT31;53633;49.932;10.884;2023-06-26T00:27:53;17.72;81.26
66722;SHT31;53633;49.932;10.884;2023-06-26T00:30:20;17.68;81.34
66722;SHT31;53633;49.932;10.884;2023-06-26T00:32:46;17.79;81.46
66722;SHT31;53633;49.932;10.884;2023-06-26T00:35:13;17.83;81.22
66722;SHT31;53633;49.932;10.884;2023-06-26T00:37:40;17.75;81.39
66722;SHT31;53633;49.932;10.884;2023-06-26T00:40:08;17.64;81.79
66722;SHT31;53633;49.932;10.884;2023-06-26T00:42:35;17.58;82.05
66722;SHT31;53633;49.932;10.884;2023-06-26T00:45:04;17.45;82.31
66722;SHT31;53633;49.932;10.884;2023-06-26T00:47:31;17.19;82.79
66722;SHT31;53633;49.932;10.884;2023-06-26T00:49:57;17.07;83.08
66722;SHT31;53633;49.932;10.884;2023-06-26T00:52:24;17.22;82.70
66722;SHT31;53633;49.932;10.884;2023-06-26T00:54:51;17.17;82.92
66722;SHT31;53633;49.932;10.884;2023-06-26T00:57:18;17.22;82.95
66722;SHT31;53633;49.932;10.884;2023-06-26T00:59:45;17.37;82.48
66722;SHT31;53633;49.932;10.884;2023-06-26T01:02:13;17.35;82.72
66722;SHT31;53633;49.932;10.884;2023-06-26T01:04:40;17.22;82.83
66722;SHT31;53633;49.932;10.884;2023-06-26T01:07:07;17.35;82.67
66722;SHT31;53633;49.932;10.884;2023-06-26T01:09:34;17.47;81.71
66722;SHT31;53633;49.932;10.884;2023-06-26T01:12:01;17.42;81.27
66722;SHT31;53633;49.932;10.884;2023-06-26T01:14:28;17.37;81.82
66722;SHT31;53633;49.932;10.884;2023-06-26T01:16:55;17.23;81.83
66722;SHT31;53633;49.932;10.884;2023-06-26T01:19:25;17.04;82.28
66722;SHT31;53633;49.932;10.884;2023-06-26T01:21:58;16.92;82.82
66722;SHT31;53633;49.932;10.884;2023-06-26T01:24:32;16.93;82.95
66722;SHT31;53633;49.932;10.884;2023-06-26T01:27:01;16.87;82.94
66722;SHT31;53633;49.932;10.884;2023-06-26T01:29:30;16.93;82.78
66722;SHT31;53633;49.932;10.884;2023-06-26T01:31:58;16.99;82.52
66722;SHT31;53633;49.932;10.884;2023-06-26T01:34:25;16.79;83.27
66722;SHT31;53633;49.932;10.884;2023-06-26T01:36:53;17.02;82.72
66722;SHT31;53633;49.932;10.884;2023-06-26T01:39:19;17.13;82.23
66722;SHT31;53633;49.932;10.884;2023-06-26T01:41:46;17.00;82.07
66722;SHT31;53633;49.932;10.884;2023-06-26T01:44:25;16.99;82.58
66722;SHT31;53633;49.932;10.884;2023-06-26T01:46:59;17.02;82.53
66722;SHT31;53633;49.932;10.884;2023-06-26T01:49:33;17.03;82.25
66722;SHT31;53633;49.932;10.884;2023-06-26T01:52:08;16.87;82.91
66722;SHT31;53633;49.932;10.884;2023-06-26T01:54:41;16.79;83.25
66722;SHT31;53633;49.932;10.884;2023-06-26T01:57:09;16.83;83.33
66722;SHT31;53633;49.932;10.884;2023-06-26T01:59:38;16.78;83.41
66722;SHT31;53633;49.932;10.884;2023-06-26T02:02:07;16.59;84.19
66722;SHT31;53633;49.932;10.884;2023-06-26T02:04:34;16.82;83.42
66722;SHT31;53633;49.932;10.884;2023-06-26T02:07:01;16.93;82.77
66722;SHT31;53633;49.932;10.884;2023-06-26T02:09:27;16.89;83.17
66722;SHT31;53633;49.932;10.884;2023-06-26T02:11:54;16.73;83.36
66722;SHT31;53633;49.932;10.884;2023-06-26T02:14:21;16.65;83.63
66722;SHT31;53633;49.932;10.884;2023-06-26T02:16:49;16.61;83.70
66722;SHT31;53633;49.932;10.884;2023-06-26T02:19:16;16.58;83.78
66722;SHT31;53633;49.932;10.884;2023-06-26T02:21:56;16.45;84.18
66722;SHT31;53633;49.932;10.884;2023-06-26T02:24:23;16.17;85.01
66722;SHT31;53633;49.932;10.884;2023-06-26T02:26:49;16.14;85.22
66722;SHT31;53633;49.932;10.884;2023-06-26T02:29:16;16.13;85.44
66722;SHT31;53633;49.932;10.884;2023-06-26T02:31:43;16.09;85.38
66722;SHT31;53633;49.932;10.884;2023-06-26T02:34:11;16.04;85.78
66722;SHT31;53633;49.932;10.884;2023-06-26T02:36:38;16.14;85.38
66722;SHT31;53633;49.932;10.884;2023-06-26T02:39:04;16.16;85.14
66722;SHT31;53633;49.932;10.884;2023-06-26T02:41:31;16.10;84.98
66722;SHT31;53633;49.932;10.884;2023-06-26T02:43:58;15.94;85.44
66722;SHT31;53633;49.932;10.884;2023-06-26T02:46:24;16.10;85.24
66722;SHT31;53633;49.932;10.884;2023-06-26T02:48:51;16.14;84.85
66722;SHT31;53633;49.932;10.884;2023-06-26T02:51:19;16.16;84.63
66722;SHT31;53633;49.932;10.884;2023-06-26T02:53:46;16.18;84.64
66722;SHT31;53633;49.932;10.884;2023-06-26T02:56:12;15.90;85.45
66722;SHT31;53633;49.932;10.884;2023-06-26T02:58:39;15.89;85.63
66722;SHT31;53633;49.932;10.884;2023-06-26T03:01:06;15.90;85.67
66722;SHT31;53633;49.932;10.884;2023-06-26T03:03:32;15.97;85.60
66722;SHT31;53633;49.932;10.884;2023-06-26T03:05:59;16.09;85.11
66722;SHT31;53633;49.932;10.884;2023-06-26T03:08:27;16.41;83.75
66722;SHT31;53633;49.932;10.884;2023-06-26T03:10:54;16.22;83.97
66722;SHT31;53633;49.932;10.884;2023-06-26T03:13:20;16.14;84.40
66722;SHT31;53633;49.932;10.884;2023-06-26T03:15:47;16.07;84.95
66722;SHT31;53633;49.932;10.884;2023-06-26T03:18:14;16.04;84.67
66722;SHT31;53633;49.932;10.884;2023-06-26T03:20:40;16.10;84.56
66722;SHT31;53633;49.932;10.884;2023-06-26T03:23:07;16.07;84.57
66722;SHT31;53633;49.932;10.884;2023-06-26T03:25:35;16.11;84.51
66722;SHT31;53633;49.932;10.884;2023-06-26T03:28:02;16.18;84.47
66722;SHT31;53633;49.932;10.884;2023-06-26T03:30:29;15.97;84.76
66722;SHT31;53633;49.932;10.884;2023-06-26T03:32:55;16.10;84.65
66722;SHT31;53633;49.932;10.884;2023-06-26T03:35:22;16.22;84.30
66722;SHT31;53633;49.932;10.884;2023-06-26T03:37:49;16.16;84.43
66722;SHT31;53633;49.932;10.884;2023-06-26T03:40:15;16.14;84.59
66722;SHT31;53633;49.932;10.884;2023-06-26T03:42:44;16.18;84.60
66722;SHT31;53633;49.932;10.884;2023-06-26T03:45:10;16.24;84.59
66722;SHT31;53633;49.932;10.884;2023-06-26T03:47:37;16.28;84.49
66722;SHT31;53633;49.932;10.884;2023-06-26T03:50:04;16.32;84.45
66722;SHT31;53633;49.932;10.884;2023-06-26T03:52:31;16.41;84.13
66722;SHT31;53633;49.932;10.884;2023-06-26T03:54:58;16.42;84.16
66722;SHT31;53633;49.932;10.884;2023-06-26T03:57:25;16.58;83.87
66722;SHT31;53633;49.932;10.884;2023-06-26T03:59:53;16.68;83.66
66722;SHT31;53633;49.932;10.884;2023-06-26T04:02:19;16.78;83.35
66722;SHT31;53633;49.932;10.884;2023-06-26T04:04:46;16.78;83.46
66722;SHT31;53633;49.932;10.884;2023-06-26T04:07:13;16.83;83.40
66722;SHT31;53633;49.932;10.884;2023-06-26T04:09:40;16.76;83.51
66722;SHT31;53633;49.932;10.884;2023-06-26T04:12:06;16.83;83.66
66722;SHT31;53633;49.932;10.884;2023-06-26T04:14:33;17.42;82.77
66722;SHT31;53633;49.932;10.884;2023-06-26T04:17:01;18.85;77.86
66722;SHT31;53633;49.932;10.884;2023-06-26T04:19:28;19.56;74.85
66722;SHT31;53633;49.932;10.884;2023-06-26T04:21:55;20.44;72.33
66722;SHT31;53633;49.932;10.884;2023-06-26T04:24:22;21.14;70.12
66722;SHT31;53633;49.932;10.884;2023-06-26T04:26:48;21.50;68.33
66722;SHT31;53633;49.932;10.884;2023-06-26T04:29:15;21.63;67.64
66722;SHT31;53633;49.932;10.884;2023-06-26T04:31:42;21.63;67.99
66722;SHT31;53633;49.932;10.884;2023-06-26T04:34:10;21.77;67.77
66722;SHT31;53633;49.932;10.884;2023-06-26T04:36:37;21.94;66.77
66722;SHT31;53633;49.932;10.884;2023-06-26T04:39:03;21.96;67.44
66722;SHT31;53633;49.932;10.884;2023-06-26T04:41:30;22.17;66.73
66722;SHT31;53633;49.932;10.884;2023-06-26T04:43:56;22.12;66.65
66722;SHT31;53633;49.932;10.884;2023-06-26T04:46:23;21.91;66.96
66722;SHT31;53633;49.932;10.884;2023-06-26T04:48:50;22.27;66.72
66722;SHT31;53633;49.932;10.884;2023-06-26T04:51:18;22.76;64.74
66722;SHT31;53633;49.932;10.884;2023-06-26T04:53:45;23.03;63.96
66722;SHT31;53633;49.932;10.884;2023-06-26T04:56:11;23.87;61.75
66722;SHT31;53633;49.932;10.884;2023-06-26T04:58:38;25.20;58.59
66722;SHT31;53633;49.932;10.884;2023-06-26T05:01:05;26.18;56.01
66722;SHT31;53633;49.932;10.884;2023-06-26T05:03:32;26.85;54.08
66722;SHT31;53633;49.932;10.884;2023-06-26T05:05:59;27.18;53.24
66722;SHT31;53633;49.932;10.884;2023-06-26T05:08:34;27.52;51.54
66722;SHT31;53633;49.932;10.884;2023-06-26T05:11:00;28.01;50.47
66722;SHT31;53633;49.932;10.884;2023-06-26T05:13:27;27.33;51.63
66722;SHT31;53633;49.932;10.884;2023-06-26T05:15:54;27.70;51.24
66722;SHT31;53633;49.932;10.884;2023-06-26T05:18:20;28.70;49.53
66722;SHT31;53633;49.932;10.884;2023-06-26T05:20:48;28.51;49.10
66722;SHT31;53633;49.932;10.884;2023-06-26T05:23:16;29.17;47.84
66722;SHT31;53633;49.932;10.884;2023-06-26T05:25:45;29.85;47.05
66722;SHT31;53633;49.932;10.884;2023-06-26T05:28:12;29.75;47.14
66722;SHT31;53633;49.932;10.884;2023-06-26T05:30:40;30.07;46.91
66722;SHT31;53633;49.932;10.884;2023-06-26T05:33:09;30.18;46.52
66722;SHT31;53633;49.932;10.884;2023-06-26T05:35:37;30.47;45.84
66722;SHT31;53633;49.932;10.884;2023-06-26T05:38:04;30.80;45.01
66722;SHT31;53633;49.932;10.884;2023-06-26T05:40:31;31.09;45.11
66722;SHT31;53633;49.932;10.884;2023-06-26T05:43:00;32.13;43.26
66722;SHT31;53633;49.932;10.884;2023-06-26T05:45:27;31.95;43.08
66722;SHT31;53633;49.932;10.884;2023-06-26T05:47:54;31.84;42.87
66722;SHT31;53633;49.932;10.884;2023-06-26T05:50:21;31.65;42.52
66722;SHT31;53633;49.932;10.884;2023-06-26T05:52:48;31.77;43.01
66722;SHT31;53633;49.932;10.884;2023-06-26T05:55:16;32.53;43.17
66722;SHT31;53633;49.932;10.884;2023-06-26T05:57:43;33.63;40.60
66722;SHT31;53633;49.932;10.884;2023-06-26T06:00:14;33.50;39.23
66722;SHT31;53633;49.932;10.884;2023-06-26T06:02:41;33.28;36.97
66722;SHT31;53633;49.932;10.884;2023-06-26T06:05:09;32.60;37.37
66722;SHT31;53633;49.932;10.884;2023-06-26T06:07:36;32.64;37.14
66722;SHT31;53633;49.932;10.884;2023-06-26T06:10:04;31.99;37.28
66722;SHT31;53633;49.932;10.884;2023-06-26T06:12:30;31.93;37.16
66722;SHT31;53633;49.932;10.884;2023-06-26T06:14:57;32.10;37.32
66722;SHT31;53633;49.932;10.884;2023-06-26T06:17:25;31.98;37.06
66722;SHT31;53633;49.932;10.884;2023-06-26T06:19:52;32.64;35.82
66722;SHT31;53633;49.932;10.884;2023-06-26T06:22:19;32.88;35.77
66722;SHT31;53633;49.932;10.884;2023-06-26T06:24:45;33.21;35.17
66722;SHT31;53633;49.932;10.884;2023-06-26T06:27:12;32.91;35.58
66722;SHT31;53633;49.932;10.884;2023-06-26T06:29:39;33.81;34.32
66722;SHT31;53633;49.932;10.884;2023-06-26T06:32:06;33.98;33.98
66722;SHT31;53633;49.932;10.884;2023-06-26T06:34:35;33.77;34.82
66722;SHT31;53633;49.932;10.884;2023-06-26T06:37:02;34.17;34.29
66722;SHT31;53633;49.932;10.884;2023-06-26T06:39:29;34.45;33.63
66722;SHT31;53633;49.932;10.884;2023-06-26T06:41:55;34.32;34.82
66722;SHT31;53633;49.932;10.884;2023-06-26T06:44:22;35.24;33.81
66722;SHT31;53633;49.932;10.884;2023-06-26T06:46:49;35.02;33.02
66722;SHT31;53633;49.932;10.884;2023-06-26T06:49:15;35.13;33.48
66722;SHT31;53633;49.932;10.884;2023-06-26T06:51:44;34.34;34.43
66722;SHT31;53633;49.932;10.884;2023-06-26T06:54:10;34.97;33.83
66722;SHT31;53633;49.932;10.884;2023-06-26T06:56:37;34.56;34.21
66722;SHT31;53633;49.932;10.884;2023-06-26T06:59:03;34.03;34.52
66722;SHT31;53633;49.932;10.884;2023-06-26T07:01:30;34.52;34.79
66722;SHT31;53633;49.932;10.884;2023-06-26T07:03:57;34.10;34.88
66722;SHT31;53633;49.932;10.884;2023-06-26T07:06:24;34.89;34.28
66722;SHT31;53633;49.932;10.884;2023-06-26T07:08:52;34.83;34.34
66722;SHT31;53633;49.932;10.884;2023-06-26T07:11:19;34.51;34.05
66722;SHT31;53633;49.932;10.884;2023-06-26T07:13:45;34.86;34.10
66722;SHT31;53633;49.932;10.884;2023-06-26T07:16:12;34.85;32.89
66722;SHT31;53633;49.932;10.884;2023-06-26T07:18:39;34.85;34.14
66722;SHT31;53633;49.932;10.884;2023-06-26T07:21:05;34.27;34.30
66722;SHT31;53633;49.932;10.884;2023-06-26T07:23:32;34.34;34.37
66722;SHT31;53633;49.932;10.884;2023-06-26T07:26:00;33.83;34.60
66722;SHT31;53633;49.932;10.884;2023-06-26T07:28:27;33.70;35.69
66722;SHT31;53633;49.932;10.884;2023-06-26T07:30:54;33.23;35.48
66722;SHT31;53633;49.932;10.884;2023-06-26T07:33:20;33.47;35.43
66722;SHT31;53633;49.932;10.884;2023-06-26T07:35:47;33.12;35.67
66722;SHT31;53633;49.932;10.884;2023-06-26T07:38:14;32.61;37.00
66722;SHT31;53633;49.932;10.884;2023-06-26T07:40:41;32.61;36.27
66722;SHT31;53633;49.932;10.884;2023-06-26T07:43:09;32.41;36.73
66722;SHT31;53633;49.932;10.884;2023-06-26T07:45:35;32.53;36.56
66722;SHT31;53633;49.932;10.884;2023-06-26T07:48:02;32.73;36.38
66722;SHT31;53633;49.932;10.884;2023-06-26T07:50:29;33.11;36.82
66722;SHT31;53633;49.932;10.884;2023-06-26T07:52:56;33.01;36.35
66722;SHT31;53633;49.932;10.884;2023-06-26T07:55:24;32.60;36.11
66722;SHT31;53633;49.932;10.884;2023-06-26T07:57:50;32.68;36.36
66722;SHT31;53633;49.932;10.884;2023-06-26T08:00:19;32.73;36.36
66722;SHT31;53633;49.932;10.884;2023-06-26T08:02:45;32.65;37.05
66722;SHT31;53633;49.932;10.884;2023-06-26T08:05:12;32.68;37.09
66722;SHT31;53633;49.932;10.884;2023-06-26T08:07:39;32.74;36.08
66722;SHT31;53633;49.932;10.884;2023-06-26T08:10:06;33.05;35.80
66722;SHT31;53633;49.932;10.884;2023-06-26T08:12:33;33.21;35.80
66722;SHT31;53633;49.932;10.884;2023-06-26T08:15:00;33.36;35.35
66722;SHT31;53633;49.932;10.884;2023-06-26T08:17:28;33.49;35.45
66722;SHT31;53633;49.932;10.884;2023-06-26T08:19:56;33.56;35.10
66722;SHT31;53633;49.932;10.884;2023-06-26T08:22:23;33.67;34.90
66722;SHT31;53633;49.932;10.884;2023-06-26T08:24:50;33.86;35.10
66722;SHT31;53633;49.932;10.884;2023-06-26T08:27:16;33.93;35.07
66722;SHT31;53633;49.932;10.884;2023-06-26T08:29:43;34.17;35.07
66722;SHT31;53633;49.932;10.884;2023-06-26T08:32:10;34.63;35.10
66722;SHT31;53633;49.932;10.884;2023-06-26T08:34:38;34.87;34.55
66722;SHT31;53633;49.932;10.884;2023-06-26T08:37:05;35.07;34.01
66722;SHT31;53633;49.932;10.884;2023-06-26T08:39:33;35.08;33.50
66722;SHT31;53633;49.932;10.884;2023-06-26T08:42:00;35.24;33.64
66722;SHT31;53633;49.932;10.884;2023-06-26T08:44:27;35.62;32.82
66722;SHT31;53633;49.932;10.884;2023-06-26T08:46:54;35.40;31.96
66722;SHT31;53633;49.932;10.884;2023-06-26T08:49:25;35.55;34.07
66722;SHT31;53633;49.932;10.884;2023-06-26T08:52:10;35.66;35.16
66722;SHT31;53633;49.932;10.884;2023-06-26T08:54:43;35.78;33.53
66722;SHT31;53633;49.932;10.884;2023-06-26T08:57:12;35.86;33.24
66722;SHT31;53633;49.932;10.884;2023-06-26T08:59:39;35.96;32.51
66722;SHT31;53633;49.932;10.884;2023-06-26T09:02:06;35.88;31.67
66722;SHT31;53633;49.932;10.884;2023-06-26T09:04:34;35.95;34.05
66722;SHT31;53633;49.932;10.884;2023-06-26T09:07:03;36.26;33.21
66722;SHT31;53633;49.932;10.884;2023-06-26T09:09:30;36.41;31.95
66722;SHT31;53633;49.932;10.884;2023-06-26T09:11:57;36.60;32.13
66722;SHT31;53633;49.932;10.884;2023-06-26T09:14:24;37.11;31.93
66722;SHT31;53633;49.932;10.884;2023-06-26T09:16:51;37.33;31.01
66722;SHT31;53633;49.932;10.884;2023-06-26T09:19:17;37.84;31.88
66722;SHT31;53633;49.932;10.884;2023-06-26T09:21:44;37.63;30.32
66722;SHT31;53633;49.932;10.884;2023-06-26T09:24:12;37.64;30.29
66722;SHT31;53633;49.932;10.884;2023-06-26T09:26:40;37.70;30.39
66722;SHT31;53633;49.932;10.884;2023-06-26T09:29:06;37.22;30.42
66722;SHT31;53633;49.932;10.884;2023-06-26T09:31:34;37.21;31.27
66722;SHT31;53633;49.932;10.884;2023-06-26T09:34:07;36.81;31.53
66722;SHT31;53633;49.932;10.884;2023-06-26T09:36:34;36.85;32.21
66722;SHT31;53633;49.932;10.884;2023-06-26T09:39:07;37.18;31.67
66722;SHT31;53633;49.932;10.884;2023-06-26T09:41:35;37.14;31.31
66722;SHT31;53633;49.932;10.884;2023-06-26T09:44:02;37.16;30.21
66722;SHT31;53633;49.932;10.884;2023-06-26T09:46:30;37.29;30.60
66722;SHT31;53633;49.932;10.884;2023-06-26T09:49:04;37.83;30.73
66722;SHT31;53633;49.932;10.884;2023-06-26T09:51:32;37.91;30.00
66722;SHT31;53633;49.932;10.884;2023-06-26T09:53:59;38.12;30.48
66722;SHT31;53633;49.932;10.884;2023-06-26T09:56:27;37.50;31.02
66722;SHT31;53633;49.932;10.884;2023-06-26T09:58:56;37.50;30.97
66722;SHT31;53633;49.932;10.884;2023-06-26T10:01:23;37.39;30.85
66722;SHT31;53633;49.932;10.884;2023-06-26T10:03:50;37.49;30.11
66722;SHT31;53633;49.932;10.884;2023-06-26T10:06:19;37.74;31.81
66722;SHT31;53633;49.932;10.884;2023-06-26T10:08:49;37.25;30.65
66722;SHT31;53633;49.932;10.884;2023-06-26T10:11:19;36.12;30.96
66722;SHT31;53633;49.932;10.884;2023-06-26T10:13:50;36.29;32.12
66722;SHT31;53633;49.932;10.884;2023-06-26T10:16:23;36.44;31.16
66722;SHT31;53633;49.932;10.884;2023-06-26T10:18:53;36.60;31.82
66722;SHT31;53633;49.932;10.884;2023-06-26T10:21:22;36.03;32.63
66722;SHT31;53633;49.932;10.884;2023-06-26T10:23:51;35.54;33.39
66722;SHT31;53633;49.932;10.884;2023-06-26T10:26:20;35.27;33.73
66722;SHT31;53633;49.932;10.884;2023-06-26T10:28:48;35.30;31.99
66722;SHT31;53633;49.932;10.884;2023-06-26T10:31:18;35.03;28.82
66722;SHT31;53633;49.932;10.884;2023-06-26T10:33:46;34.60;29.49
66722;SHT31;53633;49.932;10.884;2023-06-26T10:36:17;34.34;30.45
66722;SHT31;53633;49.932;10.884;2023-06-26T10:38:51;34.31;29.77
66722;SHT31;53633;49.932;10.884;2023-06-26T10:41:22;34.28;30.02
66722;SHT31;53633;49.932;10.884;2023-06-26T10:43:50;34.68;29.65
66722;SHT31;53633;49.932;10.884;2023-06-26T10:46:20;34.59;28.80
66722;SHT31;53633;49.932;10.884;2023-06-26T10:48:57;34.38;31.20
66722;SHT31;53633;49.932;10.884;2023-06-26T10:51:24;34.22;31.97
66722;SHT31;53633;49.932;10.884;2023-06-26T10:53:54;33.84;31.42
66722;SHT31;53633;49.932;10.884;2023-06-26T10:56:21;34.15;30.56
66722;SHT31;53633;49.932;10.884;2023-06-26T10:58:48;34.18;30.47
66722;SHT31;53633;49.932;10.884;2023-06-26T11:01:19;33.97;31.33
66722;SHT31;53633;49.932;10.884;2023-06-26T11:03:47;33.67;32.27
66722;SHT31;53633;49.932;10.884;2023-06-26T11:06:17;33.78;31.14
66722;SHT31;53633;49.932;10.884;2023-06-26T11:08:44;33.77;30.48
66722;SHT31;53633;49.932;10.884;2023-06-26T11:11:11;33.46;31.82
66722;SHT31;53633;49.932;10.884;2023-06-26T11:13:39;33.33;32.00
66722;SHT31;53633;49.932;10.884;2023-06-26T11:16:06;33.59;31.64
66722;SHT31;53633;49.932;10.884;2023-06-26T11:18:34;33.86;31.49
66722;SHT31;53633;49.932;10.884;2023-06-26T11:21:05;34.22;31.57
66722;SHT31;53633;49.932;10.884;2023-06-26T11:23:32;33.89;31.34
66722;SHT31;53633;49.932;10.884;2023-06-26T11:26:13;34.21;31.46
66722;SHT31;53633;49.932;10.884;2023-06-26T11:28:46;33.62;30.97
66722;SHT31;53633;49.932;10.884;2023-06-26T11:31:24;33.70;31.21
66722;SHT31;53633;49.932;10.884;2023-06-26T11:33:52;33.84;30.09
66722;SHT31;53633;49.932;10.884;2023-06-26T11:36:19;33.80;32.43
66722;SHT31;53633;49.932;10.884;2023-06-26T11:38:46;34.03;30.82
66722;SHT31;53633;49.932;10.884;2023-06-26T11:41:16;34.15;32.31
66722;SHT31;53633;49.932;10.884;2023-06-26T11:43:43;34.21;32.61
66722;SHT31;53633;49.932;10.884;2023-06-26T11:46:10;34.07;32.14
66722;SHT31;53633;49.932;10.884;2023-06-26T11:48:37;33.97;32.03
66722;SHT31;53633;49.932;10.884;2023-06-26T11:51:05;33.87;31.43
66722;SHT31;53633;49.932;10.884;2023-06-26T11:53:39;33.81;31.88
66722;SHT31;53633;49.932;10.884;2023-06-26T11:56:08;33.62;31.77
66722;SHT31;53633;49.932;10.884;2023-06-26T11:58:34;33.72;31.85
66722;SHT31;53633;49.932;10.884;2023-06-26T12:01:01;33.30;33.35
66722;SHT31;53633;49.932;10.884;2023-06-26T12:03:29;33.42;32.09
66722;SHT31;53633;49.932;10.884;2023-06-26T12:05:56;33.23;32.74
66722;SHT31;53633;49.932;10.884;2023-06-26T12:08:25;33.18;32.20
66722;SHT31;53633;49.932;10.884;2023-06-26T12:10:52;33.39;33.49
66722;SHT31;53633;49.932;10.884;2023-06-26T12:13:19;33.43;32.25
66722;SHT31;53633;49.932;10.884;2023-06-26T12:15:45;33.25;32.62
66722;SHT31;53633;49.932;10.884;2023-06-26T12:18:12;33.52;32.64
66722;SHT31;53633;49.932;10.884;2023-06-26T12:20:40;33.35;32.91
66722;SHT31;53633;49.932;10.884;2023-06-26T12:23:11;33.36;32.65
66722;SHT31;53633;49.932;10.884;2023-06-26T12:25:40;33.42;33.62
66722;SHT31;53633;49.932;10.884;2023-06-26T12:28:15;33.30;33.87
66722;SHT31;53633;49.932;10.884;2023-06-26T12:30:46;33.35;33.61
66722;SHT31;53633;49.932;10.884;2023-06-26T12:33:13;33.17;34.16
66722;SHT31;53633;49.932;10.884;2023-06-26T12:35:40;33.21;33.18
66722;SHT31;53633;49.932;10.884;2023-06-26T12:38:09;33.32;35.59
66722;SHT31;53633;49.932;10.884;2023-06-26T12:40:46;33.25;34.09
66722;SHT31;53633;49.932;10.884;2023-06-26T12:43:22;32.95;36.10
66722;SHT31;53633;49.932;10.884;2023-06-26T12:45:54;32.84;36.70
66722;SHT31;53633;49.932;10.884;2023-06-26T12:48:20;32.74;34.67
66722;SHT31;53633;49.932;10.884;2023-06-26T12:50:47;32.92;35.18
66722;SHT31;53633;49.932;10.884;2023-06-26T12:53:14;33.05;34.84
66722;SHT31;53633;49.932;10.884;2023-06-26T12:55:41;33.29;36.46
66722;SHT31;53633;49.932;10.884;2023-06-26T12:58:09;33.36;34.79
66722;SHT31;53633;49.932;10.884;2023-06-26T13:00:36;33.21;34.42
66722;SHT31;53633;49.932;10.884;2023-06-26T13:03:03;33.30;34.77
66722;SHT31;53633;49.932;10.884;2023-06-26T13:05:30;33.26;35.60
66722;SHT31;53633;49.932;10.884;2023-06-26T13:07:57;33.19;34.66
66722;SHT31;53633;49.932;10.884;2023-06-26T13:10:24;32.94;34.55
66722;SHT31;53633;49.932;10.884;2023-06-26T13:12:50;32.84;35.63
66722;SHT31;53633;49.932;10.884;2023-06-26T13:15:19;32.60;35.28
66722;SHT31;53633;49.932;10.884;2023-06-26T13:17:45;32.59;36.46
66722;SHT31;53633;49.932;10.884;2023-06-26T13:20:12;32.49;35.25
66722;SHT31;53633;49.932;10.884;2023-06-26T13:22:39;32.81;35.09
66722;SHT31;53633;49.932;10.884;2023-06-26T13:25:06;33.00;35.77
66722;SHT31;53633;49.932;10.884;2023-06-26T13:27:33;32.92;34.49
66722;SHT31;53633;49.932;10.884;2023-06-26T13:29:59;32.88;35.78
66722;SHT31;53633;49.932;10.884;2023-06-26T13:32:27;32.70;35.95
66722;SHT31;53633;49.932;10.884;2023-06-26T13:34:54;32.47;36.32
66722;SHT31;53633;49.932;10.884;2023-06-26T13:37:21;32.40;36.59
66722;SHT31;53633;49.932;10.884;2023-06-26T13:39:48;32.75;35.90
66722;SHT31;53633;49.932;10.884;2023-06-26T13:42:14;32.91;36.59
66722;SHT31;53633;49.932;10.884;2023-06-26T13:44:41;33.11;36.46
66722;SHT31;53633;49.932;10.884;2023-06-26T13:47:25;32.90;36.94
66722;SHT31;53633;49.932;10.884;2023-06-26T13:49:53;32.54;37.74
66722;SHT31;53633;49.932;10.884;2023-06-26T13:52:20;32.43;38.50
66722;SHT31;53633;49.932;10.884;2023-06-26T13:54:47;32.37;39.36
66722;SHT31;53633;49.932;10.884;2023-06-26T13:57:14;32.59;38.72
66722;SHT31;53633;49.932;10.884;2023-06-26T13:59:40;32.41;38.80
66722;SHT31;53633;49.932;10.884;2023-06-26T14:02:08;32.47;38.48
66722;SHT31;53633;49.932;10.884;2023-06-26T14:04:35;32.77;39.08
66722;SHT31;53633;49.932;10.884;2023-06-26T14:07:04;32.68;39.10
66722;SHT31;53633;49.932;10.884;2023-06-26T14:09:31;32.23;39.73
66722;SHT31;53633;49.932;10.884;2023-06-26T14:11:57;32.30;39.94
66722;SHT31;53633;49.932;10.884;2023-06-26T14:14:24;32.33;40.84
66722;SHT31;53633;49.932;10.884;2023-06-26T14:16:51;32.40;40.30
66722;SHT31;53633;49.932;10.884;2023-06-26T14:19:18;32.49;40.93
66722;SHT31;53633;49.932;10.884;2023-06-26T14:21:45;32.39;41.20
66722;SHT31;53633;49.932;10.884;2023-06-26T14:24:13;32.29;40.78
66722;SHT31;53633;49.932;10.884;2023-06-26T14:26:40;32.12;40.66
66722;SHT31;53633;49.932;10.884;2023-06-26T14:29:06;32.16;41.05
66722;SHT31;53633;49.932;10.884;2023-06-26T14:31:33;31.88;40.28
66722;SHT31;53633;49.932;10.884;2023-06-26T14:34:00;31.72;41.38
66722;SHT31;53633;49.932;10.884;2023-06-26T14:36:27;31.74;41.09
66722;SHT31;53633;49.932;10.884;2023-06-26T14:38:53;31.64;40.46
66722;SHT31;53633;49.932;10.884;2023-06-26T14:41:22;31.58;41.73
66722;SHT31;53633;49.932;10.884;2023-06-26T14:43:49;31.51;41.63
66722;SHT31;53633;49.932;10.884;2023-06-26T14:46:16;31.61;41.45
66722;SHT31;53633;49.932;10.884;2023-06-26T14:48:43;31.61;41.73
66722;SHT31;53633;49.932;10.884;2023-06-26T14:51:10;31.51;41.95
66722;SHT31;53633;49.932;10.884;2023-06-26T14:53:37;31.43;41.55
66722;SHT31;53633;49.932;10.884;2023-06-26T14:56:04;31.35;42.08
66722;SHT31;53633;49.932;10.884;2023-06-26T14:58:32;31.43;41.92
66722;SHT31;53633;49.932;10.884;2023-06-26T15:00:59;31.54;42.48
66722;SHT31;53633;49.932;10.884;2023-06-26T15:03:26;31.62;42.74
66722;SHT31;53633;49.932;10.884;2023-06-26T15:05:52;31.34;43.21
66722;SHT31;53633;49.932;10.884;2023-06-26T15:08:19;31.41;42.82
66722;SHT31;53633;49.932;10.884;2023-06-26T15:10:46;31.40;43.67
66722;SHT31;53633;49.932;10.884;2023-06-26T15:13:12;31.30;43.19
66722;SHT31;53633;49.932;10.884;2023-06-26T15:15:40;31.34;43.16
66722;SHT31;53633;49.932;10.884;2023-06-26T15:18:07;31.34;42.74